Time;durP1;ratioP1;P1;durP2;ratioP2;P2;SDS_P1;SDS_P2;PMS_P1;PMS_P2;Temp;Humidity;BMP_temperature;BMP_pressure;BME280_temperature;BME280_humidity;BME280_pressure;Samples;Min_cycle;Max_cycle;Signal;HPM_P1;HPM_P2
2021/11/01 00:02:02;;;;;;;20.73;15.63;;;12.80;90.90;;;;;;5090670;28;20077;-62
2021/11/01 00:04:28;;;;;;;20.75;14.93;;;12.80;91.00;;;;;;5091502;28;20039;-62
2021/11/01 00:06:54;;;;;;;19.13;14.93;;;12.70;90.90;;;;;;5090943;28;20107;-62
2021/11/01 00:09:19;;;;;;;21.75;15.15;;;12.80;91.10;;;;;;5091635;28;20040;-62
2021/11/01 00:11:45;;;;;;;20.60;15.50;;;12.70;91.00;;;;;;5087065;28;20074;-62
2021/11/01 00:14:10;;;;;;;20.55;14.95;;;12.70;91.00;;;;;;5071163;28;20025;-62
2021/11/01 00:16:36;;;;;;;24.25;16.42;;;12.70;91.10;;;;;;5073206;28;20414;-62
2021/11/01 00:19:02;;;;;;;25.40;15.68;;;12.70;91.10;;;;;;5091855;28;20063;-62
2021/11/01 00:21:27;;;;;;;22.85;15.40;;;12.60;91.10;;;;;;5088650;28;20024;-62
2021/11/01 00:23:53;;;;;;;22.80;15.23;;;12.60;91.20;;;;;;5069678;28;20090;-62
2021/11/01 00:26:18;;;;;;;22.48;15.40;;;12.60;91.20;;;;;;5071165;28;20040;-62
2021/11/01 00:28:44;;;;;;;20.90;15.50;;;12.60;91.30;;;;;;5091217;28;20014;-62
2021/11/01 00:31:11;;;;;;;22.17;16.15;;;12.60;91.30;;;;;;5091359;28;20091;-62
2021/11/01 00:33:37;;;;;;;21.15;14.35;;;12.60;91.40;;;;;;5089034;28;20539;-62
2021/11/01 00:36:03;;;;;;;21.98;14.75;;;12.50;91.40;;;;;;5091132;28;20020;-62
2021/11/01 00:38:28;;;;;;;21.10;15.32;;;12.50;91.40;;;;;;5054439;28;20489;-62
2021/11/01 00:40:54;;;;;;;20.17;14.40;;;12.60;91.40;;;;;;5070953;28;20036;-62
2021/11/01 00:43:20;;;;;;;20.88;14.75;;;12.50;91.40;;;;;;5088946;28;20024;-62
2021/11/01 00:45:45;;;;;;;21.73;15.77;;;12.50;91.40;;;;;;5095024;28;20020;-62
2021/11/01 00:48:11;;;;;;;22.35;15.50;;;12.50;91.50;;;;;;5103602;28;20156;-62
2021/11/01 00:50:38;;;;;;;24.48;16.38;;;12.50;91.50;;;;;;5115134;28;20026;-63
2021/11/01 00:53:04;;;;;;;24.33;16.13;;;12.40;91.50;;;;;;5097024;28;20048;-62
2021/11/01 00:55:49;;;;;;;21.73;15.80;;;12.40;91.60;;;;;;5094991;28;20496;-62
2021/11/01 00:58:17;;;;;;;24.25;16.05;;;12.40;91.70;;;;;;5077437;28;20040;-62
2021/11/01 01:00:43;;;;;;;24.10;17.00;;;12.40;91.70;;;;;;5074200;28;20028;-63
2021/11/01 01:03:12;;;;;;;22.75;16.05;;;12.30;91.70;;;;;;5073811;28;20033;-62
2021/11/01 01:05:42;;;;;;;24.25;16.25;;;12.30;91.80;;;;;;5074236;28;20075;-62
2021/11/01 01:08:07;;;;;;;24.42;16.35;;;12.30;91.80;;;;;;5089258;28;20498;-62
2021/11/01 01:10:33;;;;;;;20.35;14.82;;;12.30;91.80;;;;;;5094591;28;20040;-62
2021/11/01 01:12:58;;;;;;;22.38;15.10;;;12.20;91.80;;;;;;5081069;28;20416;-61
2021/11/01 01:15:26;;;;;;;24.67;16.30;;;12.20;91.90;;;;;;5073977;28;20167;-62
2021/11/01 01:17:52;;;;;;;23.48;16.27;;;12.20;91.90;;;;;;5073908;28;20036;-62
2021/11/01 01:20:21;;;;;;;22.65;16.35;;;12.20;92.00;;;;;;5074256;28;20085;-62
2021/11/01 01:22:47;;;;;;;24.05;15.98;;;12.20;92.00;;;;;;5073065;28;20029;-62
2021/11/01 01:27:48;;;;;;;22.08;15.63;;;12.10;92.00;;;;;;5072760;28;20028;-62
2021/11/01 01:30:14;;;;;;;21.83;15.13;;;12.10;92.10;;;;;;5073551;28;20021;-62
2021/11/01 01:32:41;;;;;;;23.92;15.18;;;12.10;92.10;;;;;;5074108;28;20078;-62
2021/11/01 01:35:07;;;;;;;23.52;16.92;;;12.10;92.20;;;;;;5073857;28;20024;-62
2021/11/01 01:37:33;;;;;;;21.40;15.25;;;12.10;92.20;;;;;;5073633;28;20024;-62
2021/11/01 01:39:59;;;;;;;21.45;15.13;;;12.00;92.20;;;;;;5073554;28;20034;-62
2021/11/01 01:42:24;;;;;;;21.75;16.30;;;12.00;92.30;;;;;;5082007;28;20020;-62
2021/11/01 01:44:51;;;;;;;21.55;15.43;;;12.00;92.30;;;;;;5093543;28;20561;-62
2021/11/01 01:47:17;;;;;;;24.88;15.95;;;12.00;92.30;;;;;;5095094;28;20024;-62
2021/11/01 01:49:43;;;;;;;22.85;15.98;;;12.00;92.40;;;;;;5114166;28;20028;-62
2021/11/01 01:52:09;;;;;;;21.00;15.60;;;12.00;92.40;;;;;;5103880;28;20067;-62
2021/11/01 01:54:35;;;;;;;25.65;17.50;;;12.00;92.40;;;;;;5093552;28;20131;-62
2021/11/01 01:57:00;;;;;;;22.10;16.20;;;11.90;92.50;;;;;;5086774;28;20100;-62
2021/11/01 01:59:26;;;;;;;26.52;16.45;;;11.90;92.50;;;;;;5073129;28;20554;-62
2021/11/01 02:01:52;;;;;;;24.02;16.50;;;11.90;92.50;;;;;;5076803;28;20020;-62
2021/11/01 02:04:24;;;;;;;23.13;16.10;;;11.90;92.60;;;;;;5091965;28;20040;-62
2021/11/01 02:07:27;;;;;;;20.60;14.95;;;11.90;92.60;;;;;;5089992;28;20035;-62
2021/11/01 02:10:02;;;;;;;23.13;16.35;;;11.80;92.60;;;;;;5092917;28;20051;-62
2021/11/01 02:12:31;;;;;;;;;;;11.80;92.60;;;;;;5083251;28;20063;-62
2021/11/01 02:15:06;;;;;;;22.75;14.95;;;11.80;92.50;;;;;;5072961;28;20395;-62
2021/11/01 02:17:33;;;;;;;22.63;16.13;;;11.80;92.60;;;;;;5074349;28;20040;-62
2021/11/01 02:20:12;;;;;;;24.20;15.30;;;11.70;92.70;;;;;;5072865;28;20469;-62
2021/11/01 02:22:49;;;;;;;21.95;15.90;;;11.70;92.80;;;;;;5083144;28;20040;-62
2021/11/01 02:25:38;;;;;;;24.88;16.92;;;11.80;92.80;;;;;;5077374;28;20119;-62
2021/11/01 02:28:31;;;;;;;23.55;16.35;;;11.70;92.80;;;;;;5087406;28;20032;-62
2021/11/01 02:31:19;;;;;;;22.75;15.73;;;11.70;92.80;;;;;;5090279;28;20752;-63
2021/11/01 02:34:06;;;;;;;26.42;16.20;;;11.70;92.80;;;;;;5071442;28;20021;-62
2021/11/01 02:36:52;;;;;;;23.08;14.63;;;11.70;92.90;;;;;;5075655;28;20024;-62
2021/11/01 02:39:47;;;;;;;24.25;17.08;;;11.70;92.90;;;;;;5092119;28;20020;-62
2021/11/01 02:42:34;;;;;;;22.83;15.57;;;11.70;93.00;;;;;;5089562;28;20036;-62
2021/11/01 02:45:20;;;;;;;24.83;16.45;;;11.60;92.90;;;;;;5091852;28;20448;-62
2021/11/01 02:48:07;;;;;;;25.50;17.25;;;11.60;93.20;;;;;;5089957;28;20027;-62
2021/11/01 02:50:52;;;;;;;22.35;15.68;;;11.60;93.00;;;;;;5091709;28;20027;-62
2021/11/01 02:53:19;;;;;;;23.85;16.23;;;11.60;93.00;;;;;;5088814;28;20051;-62
2021/11/01 02:55:44;;;;;;;24.27;16.55;;;11.60;93.10;;;;;;5092277;28;20039;-62
2021/11/01 02:58:10;;;;;;;25.58;15.95;;;11.60;93.20;;;;;;5090593;28;20336;-62
2021/11/01 03:00:35;;;;;;;23.27;17.58;;;11.60;93.20;;;;;;5091036;28;20024;-62
2021/11/01 03:03:05;;;;;;;23.20;16.73;;;11.60;93.20;;;;;;5089596;28;20039;-63
2021/11/01 03:05:32;;;;;;;24.48;16.67;;;11.60;93.20;;;;;;5091724;28;20162;-63
2021/11/01 03:07:58;;;;;;;23.65;15.60;;;11.60;93.30;;;;;;5076511;28;20158;-63
2021/11/01 03:10:25;;;;;;;21.55;15.57;;;11.60;93.30;;;;;;5085634;28;20035;-63
2021/11/01 03:12:52;;;;;;;22.80;16.35;;;11.60;93.30;;;;;;5076580;28;20563;-63
2021/11/01 03:15:24;;;;;;;26.17;18.35;;;11.60;93.40;;;;;;5071992;28;20150;-63
2021/11/01 03:18:04;;;;;;;23.98;16.27;;;11.60;93.40;;;;;;5072378;28;20112;-63
2021/11/01 03:20:38;;;;;;;22.90;16.13;;;11.60;93.40;;;;;;5071808;28;20024;-63
2021/11/01 03:23:20;;;;;;;23.75;16.35;;;11.60;93.40;;;;;;5085792;28;20043;-63
2021/11/01 03:25:52;;;;;;;24.48;16.40;;;11.60;93.40;;;;;;5092018;28;20040;-63
2021/11/01 03:28:19;;;;;;;26.98;17.80;;;11.60;93.40;;;;;;5074374;28;20029;-63
2021/11/01 03:30:47;;;;;;;24.40;16.83;;;11.60;93.40;;;;;;5071871;28;20029;-63
2021/11/01 03:33:14;;;;;;;26.30;17.10;;;11.60;93.40;;;;;;5086615;28;20094;-62
2021/11/01 03:35:42;;;;;;;25.50;17.15;;;11.50;93.50;;;;;;5090774;28;20028;-63
2021/11/01 03:38:07;;;;;;;23.63;16.15;;;11.50;93.50;;;;;;5075363;28;20032;-63
2021/11/01 03:40:35;;;;;;;26.30;18.55;;;11.50;93.50;;;;;;5071379;28;20029;-63
2021/11/01 03:43:04;;;;;;;26.67;17.67;;;11.50;93.50;;;;;;5085273;28;20034;-62
2021/11/01 03:45:30;;;;;;;24.83;17.60;;;11.50;93.50;;;;;;5091530;28;20036;-63
2021/11/01 03:48:03;;;;;;;24.42;17.48;;;11.50;93.50;;;;;;5076345;28;20546;-63
2021/11/01 03:50:39;;;;;;;23.25;17.02;;;11.50;93.60;;;;;;5071723;28;20385;-63
2021/11/01 03:53:06;;;;;;;22.95;16.08;;;11.50;93.60;;;;;;5085788;28;20068;-62
2021/11/01 03:55:31;;;;;;;24.08;17.40;;;11.50;93.60;;;;;;5091634;28;20042;-63
2021/11/01 03:57:58;;;;;;;28.40;17.35;;;11.50;93.60;;;;;;5089565;28;20028;-63
2021/11/01 04:00:27;;;;;;;25.38;17.38;;;11.50;93.70;;;;;;5091419;28;20028;-62
2021/11/01 04:02:53;;;;;;;26.80;18.08;;;11.50;93.70;;;;;;5075849;28;20069;-62
2021/11/01 04:05:19;;;;;;;25.77;17.05;;;11.50;93.70;;;;;;5071178;28;20044;-62
2021/11/01 04:07:45;;;;;;;24.90;16.60;;;11.50;93.80;;;;;;5082566;28;20426;-62
2021/11/01 04:10:11;;;;;;;22.58;16.60;;;11.50;93.70;;;;;;5091445;28;20020;-62
2021/11/01 04:12:37;;;;;;;25.85;17.10;;;11.50;93.80;;;;;;5089462;28;20377;-62
2021/11/01 04:15:26;;;;;;;25.17;18.23;;;11.50;93.80;;;;;;5087832;28;20039;-62
2021/11/01 04:17:57;;;;;;;22.98;16.42;;;11.50;93.80;;;;;;5072575;28;20040;-63
2021/11/01 04:20:29;;;;;;;24.40;16.90;;;11.50;93.80;;;;;;5074056;28;20056;-63
2021/11/01 04:23:04;;;;;;;24.45;17.58;;;11.40;93.80;;;;;;5087769;28;20387;-63
2021/11/01 04:25:31;;;;;;;25.10;17.65;;;11.40;93.90;;;;;;5095129;28;20036;-63
2021/11/01 04:27:59;;;;;;;22.75;16.30;;;11.40;93.90;;;;;;5080351;28;20353;-62
2021/11/01 04:30:28;;;;;;;25.30;17.98;;;11.40;93.90;;;;;;5075088;28;20450;-63
2021/11/01 04:32:57;;;;;;;29.52;18.13;;;11.40;93.90;;;;;;5087600;28;20028;-63
2021/11/01 04:35:25;;;;;;;25.15;17.55;;;11.40;93.90;;;;;;5094864;28;20085;-63
2021/11/01 04:38:00;;;;;;;28.83;16.95;;;11.40;93.90;;;;;;5080201;28;20109;-63
2021/11/01 04:40:29;;;;;;;24.80;18.85;;;11.40;94.00;;;;;;5074930;28;20032;-61
2021/11/01 04:43:18;;;;;;;25.83;18.27;;;11.40;94.00;;;;;;5087602;28;20395;-62
2021/11/01 04:53:56;;;;;;;25.58;18.10;;;11.40;94.00;;;;;;5074154;28;20455;-62
2021/11/01 04:56:25;;;;;;;24.30;17.65;;;11.40;94.10;;;;;;5074569;28;20040;-62
2021/11/01 04:58:52;;;;;;;29.27;18.67;;;11.40;94.10;;;;;;5074406;28;20032;-62
2021/11/01 05:01:26;;;;;;;24.98;18.27;;;11.40;94.10;;;;;;5081084;28;20103;-63
2021/11/01 05:03:54;;;;;;;27.25;18.13;;;11.40;94.20;;;;;;5074082;28;20538;-62
2021/11/01 05:06:22;;;;;;;24.75;17.60;;;11.40;94.20;;;;;;5074704;28;20111;-62
2021/11/01 05:08:55;;;;;;;26.63;18.27;;;11.40;94.20;;;;;;5074166;28;20479;-63
2021/11/01 05:14:06;;;;;;;27.85;18.00;;;11.30;94.20;;;;;;5094536;28;20476;-61
2021/11/01 05:19:04;;;;;;;27.17;18.52;;;11.30;94.20;;;;;;5073829;28;20108;-62
2021/11/01 05:24:01;;;;;;;25.95;18.50;;;11.30;94.30;;;;;;5094296;28;20564;-62
2021/11/01 05:26:40;;;;;;;26.60;18.73;;;11.30;94.30;;;;;;5092055;28;20107;-61
2021/11/01 05:29:08;;;;;;;28.55;18.77;;;11.30;94.30;;;;;;5093984;28;20051;-62
2021/11/01 05:31:42;;;;;;;30.77;20.48;;;11.30;94.40;;;;;;5091818;28;20186;-62
2021/11/01 05:34:11;;;;;;;25.40;18.83;;;11.30;94.40;;;;;;5094263;28;20036;-62
2021/11/01 05:36:37;;;;;;;26.95;19.02;;;11.30;94.40;;;;;;5092042;28;20032;-63
2021/11/01 05:39:05;;;;;;;26.10;19.30;;;11.40;94.50;;;;;;5094069;28;20409;-63
2021/11/01 05:41:31;;;;;;;28.75;17.33;;;11.40;94.50;;;;;;5091822;28;20039;-62
2021/11/01 05:43:56;;;;;;;28.00;19.42;;;11.40;94.60;;;;;;5093801;28;20028;-62
2021/11/01 05:46:23;;;;;;;25.55;19.20;;;11.40;94.50;;;;;;5091928;28;20036;-62
2021/11/01 05:48:52;;;;;;;29.48;20.00;;;11.50;94.50;;;;;;5073440;28;20025;-62
2021/11/01 05:51:20;;;;;;;29.40;20.45;;;11.50;94.50;;;;;;5073286;28;20024;-62
2021/11/01 05:53:50;;;;;;;26.08;18.88;;;11.50;94.50;;;;;;5073057;28;20477;-62
2021/11/01 06:04:32;;;;;;;29.20;19.67;;;11.60;94.40;;;;;;5073527;28;20033;-62
2021/11/01 06:07:17;;;;;;;29.77;18.77;;;11.60;94.40;;;;;;5074723;28;20036;-62
2021/11/01 06:10:03;;;;;;;30.52;19.10;;;11.70;94.40;;;;;;5073079;28;20059;-63
2021/11/01 06:15:14;;;;;;;28.85;17.85;;;11.80;94.40;;;;;;5093855;28;20089;-63
2021/11/01 06:17:40;;;;;;;25.92;18.08;;;11.80;94.30;;;;;;5089983;28;20054;-62
2021/11/01 06:20:07;;;;;;;33.17;18.25;;;11.80;94.30;;;;;;5093413;28;20047;-64
2021/11/01 06:22:32;;;;;;;27.42;18.77;;;11.90;94.30;;;;;;5091118;28;20025;-62
2021/11/01 06:25:00;;;;;;;28.52;18.65;;;11.90;94.20;;;;;;5091325;28;20032;-61
2021/11/01 06:27:26;;;;;;;27.60;19.25;;;11.90;94.20;;;;;;5091248;28;20392;-61
2021/11/01 06:43:25;;;;;;;29.00;17.90;;;12.10;94.10;;;;;;5081105;28;20031;-62
2021/11/01 06:51:43;;;;;;;;;;;12.20;94.10;;;;;;5071973;28;20054;-62
2021/11/01 06:54:22;;;;;;;32.45;20.23;;;12.20;94.00;;;;;;5072615;28;19920;-62
2021/11/01 06:57:12;;;;;;;25.77;19.05;;;12.30;94.00;;;;;;5079997;28;20076;-63
2021/11/01 07:16:21;;;;;;;27.42;18.73;;;12.60;93.80;;;;;;5070825;28;20077;-63
2021/11/01 07:18:54;;;;;;;26.65;19.30;;;12.70;93.80;;;;;;5078967;28;20032;-63
2021/11/01 07:24:29;;;;;;;29.30;19.90;;;12.90;93.70;;;;;;5084065;28;20083;-62
2021/11/01 08:25:24;;;;;;;29.85;20.02;;;13.70;92.60;;;;;;5079696;28;20502;-63
2021/11/01 08:36:19;;;;;;;27.55;18.77;;;13.80;92.60;;;;;;5075840;28;20032;-62
2021/11/01 08:41:40;;;;;;;28.80;20.25;;;14.00;92.60;;;;;;5078933;28;20039;-63
2021/11/01 08:47:12;;;;;;;26.85;19.15;;;14.00;92.50;;;;;;5072867;28;20059;-63
2021/11/01 08:50:09;;;;;;;30.63;19.00;;;14.10;92.50;;;;;;5068851;28;20065;-63
2021/11/01 09:06:40;;;;;;;25.90;18.55;;;14.60;92.20;;;;;;5081166;28;20024;-63
2021/11/01 09:20:05;;;;;;;26.95;18.55;;;14.90;91.80;;;;;;5073959;28;20093;-62
2021/11/01 09:23:02;;;;;;;26.50;18.80;;;14.90;91.70;;;;;;5085878;28;20081;-62
2021/11/01 09:25:39;;;;;;;24.73;18.55;;;14.90;91.60;;;;;;5078213;28;20037;-62
2021/11/01 09:28:22;;;;;;;25.65;17.85;;;15.00;91.60;;;;;;5077200;28;20040;-63
2021/11/01 09:36:33;;;;;;;24.27;16.90;;;15.00;91.30;;;;;;5077467;28;20279;-63
2021/11/01 09:39:18;;;;;;;24.60;17.83;;;15.10;91.30;;;;;;5073441;28;20037;-63
2021/11/01 09:41:44;;;;;;;26.40;18.13;;;15.10;91.20;;;;;;5076189;28;20036;-63
2021/11/01 09:44:14;;;;;;;27.23;17.90;;;15.10;91.10;;;;;;5081527;28;20291;-63
2021/11/01 09:46:40;;;;;;;24.92;17.83;;;15.20;91.10;;;;;;5077200;28;20101;-64
2021/11/01 09:49:14;;;;;;;25.77;16.88;;;15.20;91.00;;;;;;5074956;28;20476;-63
2021/11/01 09:51:42;;;;;;;24.63;17.55;;;15.30;91.00;;;;;;5076444;28;20040;-63
2021/11/01 09:54:08;;;;;;;26.00;17.33;;;15.30;91.00;;;;;;5075190;28;20044;-64
2021/11/01 09:56:46;;;;;;;27.23;17.85;;;15.30;90.90;;;;;;5092003;28;20048;-64
2021/11/01 09:59:12;;;;;;;24.50;17.25;;;15.30;91.00;;;;;;5088845;28;20036;-64
2021/11/01 10:01:46;;;;;;;24.08;16.80;;;15.30;91.00;;;;;;5093755;28;20456;-64
2021/11/01 10:04:21;;;;;;;25.90;16.77;;;15.30;91.00;;;;;;5091682;28;20035;-64
2021/11/01 10:07:14;;;;;;;22.55;16.58;;;15.30;91.00;;;;;;5075416;28;20040;-64
2021/11/01 10:09:41;;;;;;;24.88;17.27;;;15.40;91.00;;;;;;5073096;28;20025;-64
2021/11/01 10:12:12;;;;;;;23.02;17.65;;;15.40;91.00;;;;;;5071875;28;20435;-63
2021/11/01 10:14:51;;;;;;;29.92;19.25;;;15.40;90.90;;;;;;5072925;28;20103;-64
2021/11/01 10:17:36;;;;;;;23.05;16.42;;;15.40;90.90;;;;;;5072725;28;20055;-63
2021/11/01 10:20:18;;;;;;;21.95;16.15;;;15.40;90.90;;;;;;5072603;28;20480;-64
2021/11/01 10:22:44;;;;;;;22.20;16.80;;;15.40;90.90;;;;;;5072722;28;20396;-62
2021/11/01 10:25:15;;;;;;;23.40;17.13;;;15.50;91.00;;;;;;5082338;28;20032;-63
2021/11/01 10:27:42;;;;;;;22.63;17.48;;;15.50;91.10;;;;;;5072384;28;20106;-64
2021/11/01 10:30:16;;;;;;;25.52;17.55;;;15.50;91.20;;;;;;5072260;28;20094;-64
2021/11/01 10:32:46;;;;;;;24.60;16.58;;;15.50;91.30;;;;;;5072385;28;20389;-64
2021/11/01 10:35:22;;;;;;;24.05;16.30;;;15.50;91.40;;;;;;5083198;28;20028;-64
2021/11/01 10:38:09;;;;;;;23.83;16.17;;;15.50;91.60;;;;;;5082436;28;20376;-64
2021/11/01 10:40:37;;;;;;;24.02;16.50;;;15.50;91.70;;;;;;5092577;28;20043;-63
2021/11/01 10:43:39;;;;;;;23.45;15.52;;;15.60;91.80;;;;;;5098273;28;20387;-64
2021/11/01 10:57:56;;;;;;;20.15;15.02;;;15.60;92.20;;;;;;5084228;28;20089;-62
2021/11/01 11:11:47;;;;;;;23.55;16.38;;;15.90;92.30;;;;;;5071575;28;20508;-63
2021/11/01 11:28:08;;;;;;;21.38;14.90;;;16.00;92.00;;;;;;5084457;28;20028;-64
2021/11/01 11:33:41;;;;;;;21.13;14.25;;;16.00;91.90;;;;;;5072405;28;20078;-64
2021/11/01 11:42:20;;;;;;;16.60;13.30;;;16.10;91.60;;;;;;5071568;28;20269;-65
2021/11/01 11:47:47;;;;;;;19.23;12.98;;;16.10;91.50;;;;;;5091504;28;20036;-63
2021/11/01 11:50:20;;;;;;;17.15;12.15;;;16.10;91.50;;;;;;5086801;28;20036;-63
2021/11/01 11:52:49;;;;;;;20.30;12.88;;;16.10;91.50;;;;;;5103800;28;20026;-64
2021/11/01 11:55:21;;;;;;;20.27;13.88;;;16.10;91.50;;;;;;5100859;28;20075;-64
2021/11/01 11:57:55;;;;;;;20.30;13.55;;;16.10;91.50;;;;;;5085676;28;20436;-63
2021/11/01 12:00:21;;;;;;;24.70;14.25;;;16.10;91.50;;;;;;5072076;28;20104;-63
2021/11/01 12:02:49;;;;;;;18.08;12.60;;;16.10;91.50;;;;;;5078059;28;20111;-63
2021/11/01 12:05:25;;;;;;;20.20;13.35;;;16.10;91.50;;;;;;5091458;28;20148;-64
2021/11/01 12:08:08;;;;;;;20.90;14.35;;;16.10;91.60;;;;;;5084401;28;20182;-64
2021/11/01 12:11:12;;;;;;;19.63;13.35;;;16.10;91.60;;;;;;5071225;28;20082;-64
2021/11/01 12:18:55;;;;;;;21.25;14.52;;;16.10;91.70;;;;;;5088945;28;20493;-63
2021/11/01 12:21:22;;;;;;;24.08;16.27;;;16.00;91.80;;;;;;5090455;28;20062;-63
2021/11/01 12:23:48;;;;;;;22.45;15.13;;;16.00;91.80;;;;;;5089857;28;20130;-63
2021/11/01 12:26:16;;;;;;;20.80;14.63;;;16.00;91.90;;;;;;5092558;28;20036;-63
2021/11/01 12:28:49;;;;;;;20.25;13.95;;;16.00;92.00;;;;;;5088855;28;20033;-63
2021/11/01 12:31:15;;;;;;;16.52;12.10;;;15.90;92.00;;;;;;5091604;28;20040;-63
2021/11/01 12:33:47;;;;;;;21.75;12.95;;;16.00;92.10;;;;;;5082320;28;20062;-63
2021/11/01 12:36:13;;;;;;;18.67;13.15;;;15.90;92.20;;;;;;5071461;28;20024;-63
2021/11/01 12:39:09;;;;;;;17.95;13.45;;;15.90;92.40;;;;;;5078247;28;20387;-64
2021/11/01 12:49:20;;;;;;;17.92;11.80;;;15.80;92.70;;;;;;5094036;28;20086;-64
2021/11/01 12:57:28;;;;;;;16.17;11.88;;;15.80;92.80;;;;;;5091386;28;20294;-64
2021/11/01 12:59:56;;;;;;;20.42;13.27;;;15.80;92.90;;;;;;5077836;28;20051;-64
2021/11/01 13:02:30;;;;;;;17.60;12.05;;;15.80;93.00;;;;;;5099529;28;20066;-64
2021/11/01 13:04:58;;;;;;;17.33;12.88;;;15.90;93.10;;;;;;5090579;28;20048;-64
2021/11/01 13:10:12;;;;;;;16.92;11.38;;;15.80;93.30;;;;;;5074202;28;20734;-64
2021/11/01 13:18:10;;;;;;;14.80;10.82;;;15.80;93.50;;;;;;5079355;28;20016;-64
2021/11/01 13:20:39;;;;;;;16.30;11.63;;;15.70;93.50;;;;;;5072730;28;20117;-64
2021/11/01 13:23:06;;;;;;;15.18;10.57;;;15.60;93.60;;;;;;5082497;28;20024;-64
2021/11/01 13:28:26;;;;;;;17.13;9.82;;;15.60;93.70;;;;;;5085582;28;20032;-64
2021/11/01 13:36:38;;;;;;;14.95;9.43;;;15.60;93.90;;;;;;5074542;28;20527;-64
2021/11/01 13:39:06;;;;;;;11.75;8.65;;;15.60;93.90;;;;;;5074433;28;20258;-63
2021/11/01 13:41:32;;;;;;;14.95;9.55;;;15.70;93.90;;;;;;5075908;28;20036;-62
2021/11/01 13:44:12;;;;;;;16.23;11.02;;;15.60;94.00;;;;;;5073558;28;20039;-62
2021/11/01 13:46:52;;;;;;;14.95;9.30;;;15.60;94.10;;;;;;5073119;28;20086;-62
2021/11/01 13:49:19;;;;;;;14.25;9.63;;;15.60;94.10;;;;;;5080553;28;20032;-62
2021/11/01 13:51:49;;;;;;;12.88;8.60;;;15.60;94.20;;;;;;5073168;28;20039;-62
2021/11/01 13:56:57;;;;;;;10.40;7.70;;;15.50;94.10;;;;;;5074534;28;20067;-61
2021/11/01 14:13:10;;;;;;;8.85;4.70;;;15.30;94.10;;;;;;5072413;28;20025;-62
2021/11/01 14:30:45;;;;;;;8.35;4.70;;;14.90;94.40;;;;;;5065530;28;20032;-63
2021/11/01 14:35:25;;;;;;;8.80;4.55;;;14.80;94.60;;;;;;5079145;28;20403;-62
2021/11/01 14:55:17;;;;;;;8.57;4.97;;;14.70;94.90;;;;;;5078508;28;20051;-62
2021/11/01 14:58:02;;;;;;;7.00;3.60;;;14.40;95.50;;;;;;5075112;28;20044;-62
2021/11/01 15:00:35;;;;;;;12.43;3.38;;;14.40;95.50;;;;;;5070825;28;20063;-62
2021/11/01 15:11:32;;;;;;;9.07;3.50;;;14.20;95.80;;;;;;5073909;28;20032;-62
2021/11/01 15:19:27;;;;;;;8.88;3.38;;;14.10;96.00;;;;;;5076494;28;20024;-63
2021/11/01 15:22:17;;;;;;;5.03;2.95;;;14.10;96.10;;;;;;5075260;28;20105;-62
2021/11/01 15:25:00;;;;;;;6.60;3.45;;;14.10;96.20;;;;;;5077163;28;20115;-63
2021/11/01 15:27:57;;;;;;;6.85;3.70;;;14.00;96.10;;;;;;5079295;28;20446;-63
2021/11/01 15:38:39;;;;;;;7.90;3.67;;;13.90;96.40;;;;;;5070738;28;20444;-61
2021/11/01 16:18:57;;;;;;;7.78;4.85;;;13.70;97.20;;;;;;5095461;28;20450;-63
2021/11/01 16:21:22;;;;;;;10.98;5.50;;;13.70;97.20;;;;;;5080138;28;20032;-63
2021/11/01 16:23:51;;;;;;;9.80;5.57;;;13.70;97.20;;;;;;5075097;28;20086;-63
2021/11/01 16:28:43;;;;;;;18.58;12.02;;;13.70;97.30;;;;;;5075655;28;20025;-63
2021/11/01 16:31:25;;;;;;;13.93;8.90;;;13.70;97.30;;;;;;5080591;28;20052;-63
2021/11/01 16:33:56;;;;;;;13.45;7.53;;;13.70;97.30;;;;;;5075104;28;20527;-63
2021/11/01 16:36:45;;;;;;;9.93;6.00;;;13.70;97.30;;;;;;5075280;28;20036;-63
2021/11/01 16:39:12;;;;;;;15.10;7.60;;;13.70;97.40;;;;;;5090848;28;20376;-63
2021/11/01 16:41:41;;;;;;;13.70;7.80;;;13.70;97.40;;;;;;5093166;28;20029;-63
2021/11/01 16:44:15;;;;;;;9.65;6.00;;;13.60;97.40;;;;;;5089213;28;20021;-63
2021/11/01 16:46:46;;;;;;;9.93;6.40;;;13.60;97.30;;;;;;5077369;28;20502;-63
2021/11/01 16:49:13;;;;;;;7.28;4.78;;;13.60;97.30;;;;;;5089271;28;20496;-63
2021/11/01 16:51:40;;;;;;;8.57;4.82;;;13.60;97.30;;;;;;5076831;28;20037;-63
2021/11/01 16:54:08;;;;;;;8.55;4.78;;;13.60;97.30;;;;;;5093750;28;20036;-62
2021/11/01 16:56:50;;;;;;;8.00;4.68;;;13.60;97.30;;;;;;5086232;28;20584;-63
2021/11/01 17:04:37;;;;;;;8.13;4.38;;;13.60;97.30;;;;;;5090424;28;20433;-63
2021/11/01 17:07:15;;;;;;;8.02;4.38;;;13.60;97.30;;;;;;5105091;28;20539;-63
2021/11/01 17:23:55;;;;;;;14.27;9.15;;;13.50;97.30;;;;;;5090524;28;20039;-63
2021/11/01 17:26:45;;;;;;;13.15;8.52;;;13.50;97.30;;;;;;5090900;28;20036;-63
2021/11/01 17:29:29;;;;;;;12.65;6.38;;;13.50;97.30;;;;;;5082552;28;20055;-63
2021/11/01 17:35:19;;;;;;;7.32;4.82;;;13.50;97.40;;;;;;5073539;28;20027;-63
2021/11/01 17:38:21;;;;;;;8.43;5.03;;;13.50;97.40;;;;;;5073127;28;20067;-63
2021/11/01 18:37:05;;;;;;;7.95;5.53;;;13.40;97.00;;;;;;5074525;28;20057;-63
2021/11/01 18:39:52;;;;;;;7.93;5.03;;;13.40;96.90;;;;;;5087951;28;20058;-63
2021/11/01 18:42:40;;;;;;;7.07;4.15;;;13.40;96.90;;;;;;5072189;28;20078;-62
2021/11/01 18:45:29;;;;;;;7.68;4.40;;;13.30;96.80;;;;;;5072100;28;20040;-64
2021/11/01 18:51:02;;;;;;;7.53;4.38;;;13.40;96.70;;;;;;5083724;28;20119;-63
2021/11/01 18:53:35;;;;;;;9.10;4.10;;;13.30;96.60;;;;;;5090215;28;20488;-62
2021/11/01 18:56:04;;;;;;;6.18;3.50;;;13.30;96.50;;;;;;5076271;28;20115;-64
2021/11/01 18:58:32;;;;;;;6.75;4.13;;;13.30;96.50;;;;;;5072596;28;20166;-63
2021/11/01 19:00:59;;;;;;;7.13;3.67;;;13.30;96.50;;;;;;5072033;28;20036;-63
2021/11/01 19:03:27;;;;;;;6.35;3.88;;;13.30;96.40;;;;;;5086969;28;20060;-64
2021/11/01 19:06:07;;;;;;;6.53;3.50;;;13.30;96.40;;;;;;5092630;28;20125;-63
2021/11/01 19:08:47;;;;;;;5.38;3.47;;;13.30;96.30;;;;;;5071486;28;20252;-64
2021/11/01 20:06:58;;;;;;;5.93;3.63;;;13.10;96.10;;;;;;5086574;28;20040;-63
2021/11/01 20:12:40;;;;;;;6.35;3.40;;;13.10;96.10;;;;;;5077637;28;20020;-63
2021/11/01 21:25:54;;;;;;;5.75;3.20;;;12.80;97.10;;;;;;5074036;28;20044;-64
2021/11/01 21:28:20;;;;;;;4.80;3.38;;;12.80;97.20;;;;;;5085380;28;20067;-64
2021/11/01 21:30:46;;;;;;;8.75;3.70;;;12.80;97.30;;;;;;5073955;28;20029;-65
2021/11/01 21:33:17;;;;;;;10.15;4.75;;;12.80;97.30;;;;;;5084911;28;20518;-64
2021/11/01 21:35:51;;;;;;;6.07;3.25;;;12.80;97.40;;;;;;5076825;28;20510;-65
2021/11/01 21:38:17;;;;;;;5.03;3.20;;;12.80;97.40;;;;;;5074287;28;20051;-65
2021/11/01 21:40:44;;;;;;;6.15;3.13;;;12.80;97.50;;;;;;5072246;28;20697;-64
2021/11/01 21:43:10;;;;;;;5.38;3.10;;;12.70;97.50;;;;;;5085744;28;20031;-65
2021/11/01 21:45:35;;;;;;;5.35;3.50;;;12.80;97.60;;;;;;5092160;28;20036;-64
2021/11/01 21:48:01;;;;;;;6.00;3.08;;;12.80;97.70;;;;;;5086769;28;20020;-65
2021/11/01 21:50:26;;;;;;;6.85;3.42;;;12.70;97.70;;;;;;5093930;28;20591;-63
2021/11/01 21:52:54;;;;;;;5.47;2.95;;;12.70;97.80;;;;;;5088058;28;20048;-65
2021/11/01 21:55:25;;;;;;;6.57;3.22;;;12.80;97.80;;;;;;5081608;28;20055;-64
2021/11/01 21:57:58;;;;;;;5.63;3.13;;;12.70;97.90;;;;;;5105057;28;20028;-64
2021/11/01 22:16:47;;;;;;;5.53;2.65;;;12.60;98.10;;;;;;5086742;28;20369;-63
2021/11/01 22:22:18;;;;;;;5.80;2.85;;;12.60;98.20;;;;;;5073246;28;20176;-62
2021/11/01 22:25:03;;;;;;;6.20;3.03;;;12.60;98.20;;;;;;5086048;28;20139;-62
2021/11/01 22:33:11;;;;;;;4.82;2.95;;;12.60;98.40;;;;;;5074462;28;20039;-62
2021/11/01 22:38:33;;;;;;;5.20;3.20;;;12.60;98.50;;;;;;5089444;28;20081;-62
2021/11/01 22:44:10;;;;;;;6.22;3.58;;;12.60;98.60;;;;;;5072781;28;20048;-62
2021/11/01 22:57:09;;;;;;;5.78;3.33;;;12.50;98.80;;;;;;5082845;28;20491;-62
2021/11/01 22:59:35;;;;;;;7.43;3.80;;;12.50;98.80;;;;;;5072696;28;20040;-63
2021/11/01 23:02:01;;;;;;;7.10;3.22;;;12.50;98.80;;;;;;5071901;28;20515;-62
2021/11/01 23:04:50;;;;;;;6.45;3.67;;;12.50;98.90;;;;;;5072103;28;20033;-62
2021/11/01 23:31:25;;;;;;;8.30;3.75;;;12.50;99.00;;;;;;5072944;28;20033;-63
2021/11/01 23:32:14;;;;;;;6.82;3.60;;;12.50;99.10;;;;;;5079350;28;20031;-62
2021/11/01 23:34:39;;;;;;;8.57;3.92;;;12.50;99.20;;;;;;5079769;28;20029;-62
2021/11/01 23:37:05;;;;;;;6.28;3.70;;;12.50;99.20;;;;;;5073842;28;20081;-62
2021/11/01 23:39:30;;;;;;;6.45;4.03;;;12.60;99.20;;;;;;5091698;28;20024;-62
2021/11/01 23:41:56;;;;;;;7.50;3.80;;;12.50;99.20;;;;;;5084796;28;20047;-62